createdAt,value
2023-03-13T00:01:15.613Z,5.10
2023-03-13T00:03:42.577Z,5.10
2023-03-13T00:06:09.514Z,5.10
2023-03-13T00:08:36.278Z,5.10
2023-03-13T00:11:03.575Z,5.10
2023-03-13T00:13:30.206Z,5.10
2023-03-13T00:16:00.823Z,5.00
2023-03-13T00:18:27.532Z,5.00
2023-03-13T00:21:01.221Z,5.00
2023-03-13T00:23:28.556Z,5.00
2023-03-13T00:26:02.440Z,4.90
2023-03-13T00:28:32.672Z,4.90
2023-03-13T00:31:06.868Z,4.90
2023-03-13T00:33:34.044Z,4.80
2023-03-13T00:36:02.064Z,4.80
2023-03-13T00:38:29.913Z,4.80
2023-03-13T00:41:07.120Z,4.70
2023-03-13T00:43:34.407Z,4.70
2023-03-13T00:46:01.489Z,4.70
2023-03-13T00:48:28.193Z,4.70
2023-03-13T00:50:55.087Z,4.60
2023-03-13T00:53:21.989Z,4.60
2023-03-13T00:56:11.831Z,4.60
2023-03-13T00:58:39.498Z,4.50
2023-03-13T01:01:26.030Z,4.50
2023-03-13T01:03:54.314Z,4.50
2023-03-13T01:06:25.904Z,4.40
2023-03-13T01:08:53.043Z,4.40
2023-03-13T01:11:20.978Z,4.40
2023-03-13T01:13:48.186Z,4.40
2023-03-13T01:16:16.316Z,4.40
2023-03-13T01:18:47.834Z,4.40
2023-03-13T01:21:16.091Z,4.50
2023-03-13T01:23:42.729Z,4.50
2023-03-13T01:26:09.681Z,4.40
2023-03-13T01:28:36.658Z,4.40
2023-03-13T01:31:29.873Z,4.40
2023-03-13T01:34:00.020Z,4.40
2023-03-13T01:36:26.834Z,4.40
2023-03-13T01:38:54.838Z,4.40
2023-03-13T01:41:21.865Z,4.30
2023-03-13T01:43:48.716Z,4.30
2023-03-13T01:46:18.482Z,4.30
2023-03-13T01:48:49.136Z,4.40
2023-03-13T01:51:24.300Z,4.30
2023-03-13T01:54:14.188Z,4.30
2023-03-13T01:56:43.881Z,4.30
2023-03-13T01:59:13.588Z,4.30
2023-03-13T02:01:41.462Z,4.30
2023-03-13T02:04:08.428Z,4.30
2023-03-13T02:06:36.567Z,4.30
2023-03-13T02:09:05.221Z,4.30
2023-03-13T02:11:43.992Z,4.30
2023-03-13T02:14:10.759Z,4.20
2023-03-13T02:16:37.642Z,4.20
2023-03-13T02:19:11.257Z,4.20
2023-03-13T02:21:49.088Z,4.20
2023-03-13T02:24:15.830Z,4.20
2023-03-13T02:26:42.527Z,4.20
2023-03-13T02:29:09.897Z,4.20
2023-03-13T02:31:36.686Z,4.20
2023-03-13T02:34:03.830Z,4.20
2023-03-13T02:36:30.627Z,4.20
2023-03-13T02:38:59.763Z,4.20
2023-03-13T02:41:26.808Z,4.20
2023-03-13T02:43:53.458Z,4.20
2023-03-13T02:46:20.600Z,4.20
2023-03-13T02:48:48.668Z,4.20
2023-03-13T02:51:33.453Z,4.20
2023-03-13T02:54:01.580Z,4.20
2023-03-13T02:56:31.035Z,4.20
2023-03-13T02:58:57.690Z,4.20
2023-03-13T03:01:24.266Z,4.20
2023-03-13T03:03:51.199Z,4.20
2023-03-13T03:06:17.908Z,4.20
2023-03-13T03:08:44.975Z,4.20
2023-03-13T03:11:11.887Z,4.20
2023-03-13T03:13:38.674Z,4.20
2023-03-13T03:16:06.309Z,4.20
2023-03-13T03:18:34.621Z,4.20
2023-03-13T03:21:01.484Z,4.20
2023-03-13T03:23:28.090Z,4.20
2023-03-13T03:25:54.684Z,4.20
2023-03-13T03:28:21.259Z,4.20
2023-03-13T03:30:47.923Z,4.20
2023-03-13T03:33:14.579Z,4.10
2023-03-13T03:35:41.248Z,4.20
2023-03-13T03:38:07.886Z,4.20
2023-03-13T03:40:34.674Z,4.20
2023-03-13T03:43:01.306Z,4.20
2023-03-13T03:45:27.906Z,4.20
2023-03-13T03:47:54.513Z,4.20
2023-03-13T03:50:21.167Z,4.20
2023-03-13T03:52:47.923Z,4.10
2023-03-13T03:55:14.570Z,4.20
2023-03-13T03:57:42.332Z,4.10
2023-03-13T04:00:10.925Z,4.10
2023-03-13T04:02:37.777Z,4.10
2023-03-13T04:05:04.942Z,4.10
2023-03-13T04:07:31.846Z,4.00
2023-03-13T04:09:58.566Z,4.10
2023-03-13T04:12:25.222Z,4.00
2023-03-13T04:14:51.817Z,4.10
2023-03-13T04:17:18.475Z,4.10
2023-03-13T04:19:45.179Z,4.00
2023-03-13T04:22:11.842Z,4.10
2023-03-13T04:24:38.482Z,4.10
2023-03-13T04:27:06.607Z,4.10
2023-03-13T04:29:33.523Z,4.10
2023-03-13T04:32:00.250Z,4.10
2023-03-13T04:34:26.960Z,4.10
2023-03-13T04:36:53.676Z,4.10
2023-03-13T04:39:20.612Z,4.10
2023-03-13T04:41:47.227Z,4.10
2023-03-13T04:44:13.844Z,4.10
2023-03-13T04:46:40.595Z,4.20
2023-03-13T04:49:08.829Z,4.20
2023-03-13T04:51:35.651Z,4.20
2023-03-13T04:54:02.250Z,4.20
2023-03-13T04:56:42.280Z,4.30
2023-03-13T04:59:11.111Z,4.20
2023-03-13T05:01:37.911Z,4.30
2023-03-13T05:04:05.007Z,4.30
2023-03-13T05:06:31.643Z,4.30
2023-03-13T05:08:58.291Z,4.30
2023-03-13T05:11:24.955Z,4.30
2023-03-13T05:13:51.561Z,4.40
2023-03-13T05:16:18.358Z,4.30
2023-03-13T05:18:45.153Z,4.40
2023-03-13T05:21:11.805Z,4.40
2023-03-13T05:23:38.493Z,4.40
2023-03-13T05:26:05.144Z,4.40
2023-03-13T05:28:32.114Z,4.40
2023-03-13T05:30:58.939Z,4.50
2023-03-13T05:33:25.573Z,4.50
2023-03-13T05:35:52.232Z,4.50
2023-03-13T05:38:18.945Z,4.60
2023-03-13T05:40:45.592Z,4.60
2023-03-13T05:43:12.364Z,4.60
2023-03-13T05:45:39.120Z,4.70
2023-03-13T05:48:06.032Z,4.70
2023-03-13T05:50:32.724Z,4.70
2023-03-13T05:52:59.366Z,4.80
2023-03-13T05:55:26.043Z,4.80
2023-03-13T05:57:52.662Z,4.90
2023-03-13T06:00:19.477Z,4.90
2023-03-13T06:02:46.295Z,4.90
2023-03-13T06:05:12.922Z,5.00
2023-03-13T06:07:39.530Z,5.00
2023-03-13T06:10:06.475Z,5.10
2023-03-13T06:12:33.196Z,5.20
2023-03-13T06:14:59.789Z,5.30
2023-03-13T06:17:26.512Z,5.40
2023-03-13T06:19:53.095Z,5.50
2023-03-13T06:22:19.794Z,5.50
2023-03-13T06:24:48.933Z,5.60
2023-03-13T06:27:15.973Z,5.70
2023-03-13T06:29:42.619Z,5.70
2023-03-13T06:32:09.335Z,5.70
2023-03-13T06:34:36.060Z,5.70
2023-03-13T06:37:02.712Z,5.70
2023-03-13T06:39:29.681Z,5.70
2023-03-13T06:41:56.278Z,5.70
2023-03-13T06:44:22.966Z,5.70
2023-03-13T06:46:49.685Z,5.70
2023-03-13T06:49:16.392Z,5.80
2023-03-13T06:51:43.013Z,5.80
2023-03-13T06:54:09.624Z,5.90
2023-03-13T06:56:36.242Z,5.90
2023-03-13T06:59:02.918Z,6.00
2023-03-13T07:01:29.678Z,6.00
2023-03-13T07:03:56.451Z,6.10
2023-03-13T07:06:23.151Z,6.10
2023-03-13T07:08:49.837Z,6.20
2023-03-13T07:11:16.536Z,6.30
2023-03-13T07:13:43.306Z,6.30
2023-03-13T07:16:11.368Z,6.40
2023-03-13T07:18:38.438Z,6.40
2023-03-13T07:21:05.377Z,6.50
2023-03-13T07:23:32.922Z,6.50
2023-03-13T07:26:00.888Z,6.60
2023-03-13T07:28:28.039Z,6.60
2023-03-13T07:30:54.705Z,6.60
2023-03-13T07:33:22.334Z,6.70
2023-03-13T07:35:50.290Z,6.70
2023-03-13T07:38:17.271Z,6.80
2023-03-13T07:40:53.992Z,6.80
2023-03-13T07:43:20.805Z,6.90
2023-03-13T07:45:54.693Z,7.00
2023-03-13T07:48:24.478Z,7.10
2023-03-13T07:50:51.241Z,7.20
2023-03-13T07:53:21.292Z,7.30
2023-03-13T07:55:55.635Z,7.40
2023-03-13T07:58:22.593Z,7.50
2023-03-13T08:00:49.293Z,7.70
2023-03-13T08:03:16.012Z,7.80
2023-03-13T08:05:42.673Z,8.00
2023-03-13T08:08:09.459Z,8.10
2023-03-13T08:10:36.229Z,8.30
2023-03-13T08:13:02.889Z,8.40
2023-03-13T08:15:29.506Z,8.40
2023-03-13T08:17:56.767Z,8.50
2023-03-13T08:20:23.434Z,8.50
2023-03-13T08:22:50.603Z,8.40
2023-03-13T08:25:17.462Z,8.40
2023-03-13T08:27:44.159Z,8.50
2023-03-13T08:30:11.090Z,8.50
2023-03-13T08:32:37.836Z,8.60
2023-03-13T08:35:05.227Z,8.70
2023-03-13T08:37:31.941Z,8.70
2023-03-13T08:39:58.504Z,8.70
2023-03-13T08:42:25.196Z,8.70
2023-03-13T08:44:51.928Z,8.80
2023-03-13T08:47:18.582Z,8.80
2023-03-13T08:49:45.215Z,8.90
2023-03-13T08:52:11.879Z,9.00
2023-03-13T08:54:38.471Z,9.20
2023-03-13T08:57:05.159Z,9.30
2023-03-13T08:59:31.854Z,9.40
2023-03-13T09:01:58.607Z,9.60
2023-03-13T09:04:25.260Z,9.70
2023-03-13T09:06:51.923Z,9.70
2023-03-13T09:09:19.657Z,9.80
2023-03-13T09:11:46.311Z,9.90
2023-03-13T09:14:13.006Z,10.10
2023-03-13T09:16:39.672Z,10.20
2023-03-13T09:19:06.650Z,10.10
2023-03-13T09:21:34.416Z,10.00
2023-03-13T09:24:01.174Z,9.90
2023-03-13T09:26:28.300Z,9.80
2023-03-13T09:28:55.010Z,9.70
2023-03-13T09:31:23.253Z,9.70
2023-03-13T09:33:50.595Z,9.80
2023-03-13T09:36:21.563Z,9.90
2023-03-13T09:38:50.682Z,10.00
2023-03-13T09:41:17.365Z,10.20
2023-03-13T09:43:47.895Z,10.30
2023-03-13T09:46:17.645Z,10.40
2023-03-13T09:48:52.358Z,10.40
2023-03-13T09:54:46.293Z,10.50
2023-03-13T09:57:32.267Z,10.40
2023-03-13T10:00:01.706Z,10.40
2023-03-13T10:02:33.866Z,10.40
2023-03-13T10:05:03.862Z,10.40
2023-03-13T10:07:30.572Z,10.40
2023-03-13T10:09:57.623Z,10.40
2023-03-13T10:12:33.299Z,10.50
2023-03-13T10:15:18.276Z,10.60
2023-03-13T10:17:45.126Z,10.70
2023-03-13T10:20:20.955Z,10.80
2023-03-13T10:22:48.985Z,10.80
2023-03-13T10:25:28.012Z,10.80
2023-03-13T10:27:55.639Z,10.80
2023-03-13T10:30:24.367Z,10.80
2023-03-13T10:32:53.152Z,10.80
2023-03-13T10:35:24.853Z,10.80
2023-03-13T10:38:00.211Z,11.00
2023-03-13T10:40:28.521Z,11.10
2023-03-13T10:43:06.272Z,11.20
2023-03-13T10:45:35.585Z,11.30
2023-03-13T10:48:04.796Z,11.40
2023-03-13T10:50:35.349Z,11.40
2023-03-13T10:53:21.203Z,11.40
2023-03-13T10:55:48.180Z,11.40
2023-03-13T10:58:20.323Z,11.40
2023-03-13T11:00:47.697Z,11.50
2023-03-13T11:03:18.964Z,11.70
2023-03-13T11:05:56.075Z,11.80
2023-03-13T11:08:26.952Z,11.90
2023-03-13T11:10:55.650Z,12.10
2023-03-13T11:13:37.408Z,12.20
2023-03-13T11:16:24.454Z,12.30
2023-03-13T11:19:11.362Z,12.40
2023-03-13T11:21:57.075Z,12.40
2023-03-13T11:24:28.702Z,12.30
2023-03-13T11:27:15.671Z,12.30
2023-03-13T11:30:05.677Z,12.40
2023-03-13T11:32:44.810Z,12.40
2023-03-13T11:35:18.939Z,12.50
2023-03-13T11:37:56.527Z,12.70
2023-03-13T11:41:06.891Z,12.90
2023-03-13T11:43:45.302Z,13.10
2023-03-13T11:46:20.926Z,13.30
2023-03-13T11:48:47.672Z,13.50
2023-03-13T11:51:33.322Z,13.70
2023-03-13T11:54:12.305Z,13.80
2023-03-13T12:03:57.945Z,14.10
2023-03-13T12:10:02.360Z,14.20
2023-03-13T12:12:28.979Z,14.10
2023-03-13T12:14:58.311Z,14.10
2023-03-13T12:17:35.977Z,14.10
2023-03-13T12:20:09.166Z,14.20
2023-03-13T12:22:39.152Z,14.30
2023-03-13T12:25:19.979Z,14.40
2023-03-13T12:27:49.476Z,14.50
2023-03-13T12:30:24.425Z,14.60
2023-03-13T12:32:58.249Z,14.60
2023-03-13T12:35:30.800Z,14.60
2023-03-13T12:38:13.914Z,14.60
2023-03-13T12:40:59.944Z,14.50
2023-03-13T13:04:41.609Z,14.80
2023-03-13T13:07:20.403Z,14.80
2023-03-13T13:10:01.522Z,15.00
2023-03-13T13:12:28.659Z,15.00
2023-03-13T13:14:58.972Z,15.10
2023-03-13T13:17:44.728Z,15.20
2023-03-13T13:20:41.457Z,15.20
2023-03-13T13:23:46.974Z,15.30
2023-03-13T13:26:36.479Z,15.40
2023-03-13T13:29:12.325Z,15.50
2023-03-13T13:32:00.260Z,15.50
2023-03-13T13:34:30.883Z,15.50
2023-03-13T13:36:58.617Z,15.50
2023-03-13T13:39:34.591Z,15.60
2023-03-13T13:42:01.386Z,15.60
2023-03-13T13:44:29.102Z,15.70
2023-03-13T13:46:57.827Z,15.70
2023-03-13T13:49:29.862Z,15.70
2023-03-13T13:52:02.570Z,15.70
2023-03-13T13:54:32.422Z,15.60
2023-03-13T13:56:59.119Z,15.60
2023-03-13T13:59:29.902Z,15.60
2023-03-13T14:02:10.368Z,15.70
2023-03-13T14:04:50.460Z,15.70
2023-03-13T14:07:19.790Z,15.70
2023-03-13T14:09:50.171Z,15.70
2023-03-13T14:12:25.899Z,15.70
2023-03-13T14:15:12.782Z,15.70
2023-03-13T14:17:40.297Z,15.80
2023-03-13T14:20:16.492Z,15.90
2023-03-13T14:22:46.719Z,16.10
2023-03-13T14:25:13.366Z,16.10
2023-03-13T14:27:44.209Z,16.30
2023-03-13T14:30:11.867Z,16.40
2023-03-13T14:32:38.752Z,16.30
2023-03-13T14:35:06.282Z,16.30
2023-03-13T14:37:43.483Z,16.30
2023-03-13T14:40:18.948Z,16.40
2023-03-13T14:42:47.283Z,16.20
2023-03-13T14:45:22.453Z,16.30
2023-03-13T14:47:50.595Z,16.40
2023-03-13T14:50:17.686Z,16.30
2023-03-13T14:52:52.561Z,16.30
2023-03-13T14:55:19.164Z,16.20
2023-03-13T14:57:56.583Z,16.30
2023-03-13T15:00:40.347Z,16.30
2023-03-13T15:03:16.930Z,16.30
2023-03-13T15:05:44.795Z,16.20
2023-03-13T15:08:15.227Z,16.10
2023-03-13T15:10:42.336Z,15.90
2023-03-13T15:13:26.054Z,16.00
2023-03-13T15:15:52.953Z,16.00
2023-03-13T15:18:22.969Z,15.90
2023-03-13T15:20:50.727Z,16.00
2023-03-13T15:23:17.702Z,16.00
2023-03-13T15:25:46.116Z,16.00
2023-03-13T15:28:17.356Z,15.90
2023-03-13T15:30:45.017Z,15.80
2023-03-13T15:33:15.867Z,15.60
2023-03-13T15:35:43.463Z,15.40
2023-03-13T15:38:12.368Z,15.20
2023-03-13T15:40:38.943Z,15.10
2023-03-13T15:43:05.825Z,14.90
2023-03-13T15:45:32.605Z,14.80
2023-03-13T15:48:00.147Z,14.70
2023-03-13T15:50:30.801Z,14.60
2023-03-13T15:52:58.148Z,14.50
2023-03-13T15:55:26.247Z,14.40
2023-03-13T15:57:52.881Z,14.40
2023-03-13T16:00:21.132Z,14.30
2023-03-13T16:02:47.809Z,14.20
2023-03-13T16:05:14.972Z,14.20
2023-03-13T16:07:41.685Z,14.10
2023-03-13T16:10:25.218Z,14.00
2023-03-13T16:12:52.666Z,14.00
2023-03-13T16:15:19.514Z,13.90
2023-03-13T16:17:46.220Z,13.90
2023-03-13T16:20:17.394Z,13.80
2023-03-13T16:22:44.620Z,13.70
2023-03-13T16:25:11.746Z,13.70
2023-03-13T16:27:39.684Z,13.70
2023-03-13T16:30:12.042Z,13.60
2023-03-13T16:32:38.852Z,13.50
2023-03-13T16:35:05.779Z,13.50
2023-03-13T16:37:32.513Z,13.40
2023-03-13T16:39:59.118Z,13.30
2023-03-13T16:42:25.804Z,13.20
2023-03-13T16:44:52.496Z,13.20
2023-03-13T16:47:23.615Z,13.10
2023-03-13T16:49:50.269Z,13.00
2023-03-13T16:52:17.363Z,13.00
2023-03-13T16:54:44.591Z,12.90
2023-03-13T16:57:12.354Z,12.80
2023-03-13T16:59:39.148Z,12.70
2023-03-13T17:02:12.875Z,12.60
2023-03-13T17:04:40.464Z,12.50
2023-03-13T17:07:27.760Z,12.40
2023-03-13T17:09:54.519Z,12.20
2023-03-13T17:12:21.289Z,12.10
2023-03-13T17:14:47.991Z,12.00
2023-03-13T17:17:16.597Z,11.90
2023-03-13T17:19:43.426Z,11.80
2023-03-13T17:22:14.118Z,11.70
2023-03-13T17:24:41.013Z,11.70
2023-03-13T17:27:12.260Z,11.60
2023-03-13T17:29:38.913Z,11.50
2023-03-13T17:32:06.295Z,11.40
2023-03-13T17:34:32.952Z,11.30
2023-03-13T17:37:01.438Z,11.20
2023-03-13T17:39:28.157Z,11.20
2023-03-13T17:41:54.833Z,11.20
2023-03-13T17:44:21.445Z,11.10
2023-03-13T17:46:48.209Z,11.00
2023-03-13T17:49:16.552Z,11.00
2023-03-13T17:51:46.120Z,10.90
2023-03-13T17:54:15.499Z,10.90
2023-03-13T17:56:43.360Z,10.80
2023-03-13T17:59:16.138Z,10.70
2023-03-13T18:01:43.037Z,10.70
2023-03-13T18:04:10.483Z,10.60
2023-03-13T18:06:38.555Z,10.50
2023-03-13T18:09:09.184Z,10.40
2023-03-13T18:11:36.704Z,10.30
2023-03-13T18:14:03.981Z,10.30
2023-03-13T18:16:52.226Z,10.20
2023-03-13T18:19:26.454Z,10.10
2023-03-13T18:21:54.273Z,10.10
2023-03-13T18:24:21.447Z,10.00
2023-03-13T18:26:49.150Z,9.90
2023-03-13T18:29:17.827Z,9.80
2023-03-13T18:31:45.290Z,9.80
2023-03-13T18:34:12.293Z,9.80
2023-03-13T18:36:40.520Z,9.70
2023-03-13T18:39:07.216Z,9.70
2023-03-13T18:41:34.282Z,9.70
2023-03-13T18:44:03.815Z,9.60
2023-03-13T18:46:31.742Z,9.50
2023-03-13T18:48:58.669Z,9.50
2023-03-13T18:51:25.776Z,9.40
2023-03-13T18:53:52.848Z,9.30
2023-03-13T18:56:21.362Z,9.30
2023-03-13T18:58:50.514Z,9.30
2023-03-13T19:01:20.013Z,9.30
2023-03-13T19:03:49.677Z,9.20
2023-03-13T19:06:24.086Z,9.20
2023-03-13T19:09:41.158Z,9.10
2023-03-13T19:12:02.071Z,9.10
2023-03-13T19:14:28.785Z,9.00
2023-03-13T19:16:57.593Z,8.90
2023-03-13T19:19:25.060Z,8.80
2023-03-13T19:21:52.738Z,8.70
2023-03-13T19:24:21.754Z,8.70
2023-03-13T19:26:50.145Z,8.60
2023-03-13T19:29:17.895Z,8.50
2023-03-13T19:31:44.677Z,8.50
2023-03-13T19:34:11.924Z,8.40
2023-03-13T19:36:40.022Z,8.40
2023-03-13T19:39:12.464Z,8.30
2023-03-13T19:41:39.099Z,8.30
2023-03-13T19:44:05.786Z,8.20
2023-03-13T19:46:33.198Z,8.20
2023-03-13T19:49:01.267Z,8.10
2023-03-13T19:51:30.497Z,8.10
2023-03-13T19:53:57.775Z,8.10
2023-03-13T19:56:25.990Z,8.20
2023-03-13T19:58:56.307Z,8.20
2023-03-13T20:01:23.235Z,8.10
2023-03-13T20:03:50.129Z,8.10
2023-03-13T20:06:18.399Z,8.00
2023-03-13T20:08:45.472Z,7.90
2023-03-13T20:11:12.512Z,7.90
2023-03-13T20:13:39.715Z,7.80
2023-03-13T20:16:06.982Z,7.80
2023-03-13T20:18:33.710Z,7.70
2023-03-13T20:21:00.503Z,7.60
2023-03-13T20:23:27.140Z,7.60
2023-03-13T20:25:53.821Z,7.60
2023-03-13T20:28:20.610Z,7.50
2023-03-13T20:30:48.563Z,7.50
2023-03-13T20:33:15.659Z,7.50
2023-03-13T20:35:42.708Z,7.60
2023-03-13T20:38:09.414Z,7.60
2023-03-13T20:40:36.032Z,7.60
2023-03-13T20:43:03.106Z,7.60
2023-03-13T20:45:32.276Z,7.60
2023-03-13T20:47:59.007Z,7.70
2023-03-13T20:50:25.663Z,7.60
2023-03-13T20:52:52.410Z,7.60
2023-03-13T20:55:19.112Z,7.50
2023-03-13T20:57:45.716Z,7.40
2023-03-13T21:00:12.846Z,7.30
2023-03-13T21:02:39.810Z,7.30
2023-03-13T21:05:06.758Z,7.20
2023-03-13T21:07:33.391Z,7.10
2023-03-13T21:09:59.984Z,6.80
2023-03-13T21:12:26.722Z,6.80
2023-03-13T21:14:56.104Z,6.80
2023-03-13T21:17:22.844Z,6.90
2023-03-13T21:19:49.821Z,7.00
2023-03-13T21:22:16.582Z,7.00
2023-03-13T21:24:43.280Z,7.00
2023-03-13T21:27:09.960Z,7.00
2023-03-13T21:29:36.553Z,6.90
2023-03-13T21:32:03.232Z,6.70
2023-03-13T21:34:29.838Z,6.60
2023-03-13T21:36:56.552Z,6.50
2023-03-13T21:39:23.209Z,6.40
2023-03-13T21:41:49.910Z,6.40
2023-03-13T21:44:19.720Z,6.40
2023-03-13T21:46:48.507Z,6.50
2023-03-13T21:49:15.275Z,6.60
2023-03-13T21:51:41.905Z,6.60
2023-03-13T21:54:08.611Z,6.60
2023-03-13T21:56:35.211Z,6.60
2023-03-13T21:59:01.815Z,6.60
2023-03-13T22:01:28.426Z,6.70
2023-03-13T22:03:55.353Z,6.60
2023-03-13T22:06:22.678Z,6.60
2023-03-13T22:08:49.731Z,6.50
2023-03-13T22:11:16.540Z,6.50
2023-03-13T22:13:43.594Z,6.40
2023-03-13T22:16:11.470Z,6.40
2023-03-13T22:18:38.997Z,6.30
2023-03-13T22:21:05.744Z,6.30
2023-03-13T22:23:32.349Z,6.30
2023-03-13T22:25:59.100Z,6.10
2023-03-13T22:28:26.362Z,5.90
2023-03-13T22:30:53.077Z,6.00
2023-03-13T22:33:20.159Z,6.00
2023-03-13T22:35:50.092Z,6.00
2023-03-13T22:38:16.803Z,6.10
2023-03-13T22:40:43.454Z,6.20
2023-03-13T22:43:10.092Z,6.30
2023-03-13T22:45:36.751Z,6.40
2023-03-13T22:48:06.190Z,6.40
2023-03-13T22:50:34.034Z,6.40
2023-03-13T22:53:00.860Z,6.40
2023-03-13T22:55:27.626Z,6.40
2023-03-13T22:57:54.289Z,6.40
2023-03-13T23:00:21.172Z,6.40
2023-03-13T23:02:47.791Z,6.40
2023-03-13T23:05:14.449Z,6.40
2023-03-13T23:07:41.253Z,6.40
2023-03-13T23:10:09.377Z,6.40
2023-03-13T23:12:36.041Z,6.40
2023-03-13T23:15:02.695Z,6.40
2023-03-13T23:17:33.260Z,6.30
2023-03-13T23:20:07.823Z,6.20
2023-03-13T23:22:34.726Z,6.30
2023-03-13T23:25:01.432Z,6.30
2023-03-13T23:27:28.189Z,6.30
2023-03-13T23:29:55.315Z,6.20
2023-03-13T23:32:22.574Z,6.20
2023-03-13T23:34:49.229Z,6.20
2023-03-13T23:37:15.834Z,6.10
2023-03-13T23:39:42.438Z,6.10
2023-03-13T23:42:09.116Z,6.10
2023-03-13T23:44:35.809Z,6.40
2023-03-13T23:47:02.546Z,7.50
2023-03-13T23:49:29.199Z,8.80
2023-03-13T23:51:55.850Z,9.20
2023-03-13T23:54:23.154Z,9.30
2023-03-13T23:56:49.778Z,9.90
2023-03-13T23:59:16.597Z,10.10
